Time;durP1;ratioP1;P1;durP2;ratioP2;P2;SDS_P1;SDS_P2;PMS_P1;PMS_P2;Temp;Humidity;BMP_temperature;BMP_pressure;BME280_temperature;BME280_humidity;BME280_pressure;Samples;Min_cycle;Max_cycle;Signal;HPM_P1;HPM_P2
2022/09/18 00:01:07;;;;;;;;;;;11.10;99.90;;;;;;5089278;28;19930;-70
2022/09/18 00:03:35;;;;;;;;;;;11.10;99.90;;;;;;5088172;28;19946;-70
2022/09/18 00:06:05;;;;;;;;;;;11.10;99.90;;;;;;5080959;28;19924;-70
2022/09/18 00:08:32;;;;;;;;;;;11.10;99.90;;;;;;5092366;28;20301;-70
2022/09/18 00:10:59;;;;;;;;;;;11.10;99.90;;;;;;5092724;28;20379;-70
2022/09/18 00:13:25;;;;;;;;;;;11.10;99.90;;;;;;5092755;28;19924;-70
2022/09/18 00:15:54;;;;;;;;;;;11.10;99.90;;;;;;5087995;28;19924;-70
2022/09/18 00:18:20;;;;;;;;;;;11.10;99.90;;;;;;5091426;28;20673;-70
2022/09/18 00:20:48;;;;;;;;;;;11.10;99.90;;;;;;5080042;28;19925;-70
2022/09/18 00:23:15;;;;;;;;;;;11.20;99.90;;;;;;5074890;28;19928;-70
2022/09/18 00:25:42;;;;;;;;;;;11.20;99.90;;;;;;5091085;28;19943;-70
2022/09/18 00:28:08;;;;;;;;;;;11.20;99.90;;;;;;5089715;28;20010;-70
2022/09/18 00:30:35;;;;;;;;;;;11.20;99.90;;;;;;5090149;28;21509;-70
2022/09/18 00:33:02;;;;;;;;;;;11.30;99.90;;;;;;5083914;28;20375;-71
2022/09/18 00:35:28;;;;;;;;;;;11.30;99.90;;;;;;5087652;28;19924;-71
2022/09/18 00:37:57;;;;;;;;;;;11.30;99.90;;;;;;5088086;28;20383;-70
2022/09/18 00:40:24;;;;;;;;;;;11.30;99.90;;;;;;5082683;28;19924;-71
2022/09/18 00:42:50;;;;;;;;;;;11.30;99.90;;;;;;5095246;28;19924;-71
2022/09/18 00:45:17;;;;;;;;;;;11.40;99.90;;;;;;5086095;28;20382;-71
2022/09/18 00:47:46;;;;;;;;;;;11.30;99.90;;;;;;5092683;28;19924;-71
2022/09/18 00:50:14;;;;;;;;;;;11.30;99.90;;;;;;5097633;28;19969;-70
2022/09/18 00:52:47;;;;;;;;;;;11.40;99.90;;;;;;5086480;28;20273;-70
2022/09/18 00:55:16;;;;;;;;;;;11.30;99.90;;;;;;5079317;28;20020;-71
2022/09/18 00:57:46;;;;;;;;;;;11.30;99.90;;;;;;5084956;28;19927;-70
2022/09/18 01:00:14;;;;;;;;;;;11.30;99.90;;;;;;5093852;28;19927;-70
2022/09/18 01:02:42;;;;;;;;;;;11.30;99.90;;;;;;5094625;28;20458;-70
2022/09/18 01:05:09;;;;;;;;;;;11.20;99.90;;;;;;5085140;28;19928;-70
2022/09/18 01:07:41;;;;;;;;;;;11.20;99.90;;;;;;5087834;28;19928;-70
2022/09/18 01:10:18;;;;;;;;;;;11.20;99.90;;;;;;5085265;28;20379;-70
2022/09/18 01:12:52;;;;;;;;;;;11.10;99.90;;;;;;5085139;28;19924;-70
2022/09/18 01:15:23;;;;;;;;;;;11.10;99.90;;;;;;5084076;28;19955;-70
2022/09/18 01:17:54;;;;;;;;;;;11.10;99.90;;;;;;5091233;28;20291;-70
2022/09/18 01:20:39;;;;;;;;;;;11.00;99.90;;;;;;5080066;28;19943;-70
2022/09/18 01:23:14;;;;;;;;;;;11.00;99.90;;;;;;5072260;28;19929;-70
2022/09/18 01:25:50;;;;;;;;;;;11.00;99.90;;;;;;5073732;28;19938;-71
2022/09/18 01:28:21;;;;;;;;;;;11.00;99.90;;;;;;5087051;28;20374;-70
2022/09/18 01:30:48;;;;;;;;;;;11.00;99.90;;;;;;5085870;28;19939;-70
2022/09/18 01:33:17;;;;;;;;;;;10.90;99.90;;;;;;5081899;28;19975;-70
2022/09/18 01:35:47;;;;;;;;;;;10.90;99.90;;;;;;5074065;28;20024;-71
2022/09/18 01:38:16;;;;;;;;;;;10.90;99.90;;;;;;5082188;28;19923;-71
2022/09/18 01:40:44;;;;;;;;;;;10.80;99.90;;;;;;5086740;28;19924;-71
2022/09/18 01:43:14;;;;;;;;;;;10.70;99.90;;;;;;5072633;28;19924;-70
2022/09/18 01:45:44;;;;;;;;;;;10.70;99.90;;;;;;5090467;28;19932;-70
2022/09/18 01:48:12;;;;;;;;;;;10.60;99.90;;;;;;5087666;28;20401;-70
2022/09/18 01:50:42;;;;;;;;;;;10.60;99.90;;;;;;5079168;28;20374;-71
2022/09/18 01:53:11;;;;;;;;;;;10.60;99.90;;;;;;5097602;28;19923;-70
2022/09/18 01:55:38;;;;;;;;;;;10.60;99.90;;;;;;5072304;28;19931;-70
2022/09/18 01:58:07;;;;;;;;;;;10.60;99.90;;;;;;5081366;28;19934;-70
2022/09/18 02:00:35;;;;;;;;;;;10.60;99.90;;;;;;5085336;28;19971;-70
2022/09/18 02:03:06;;;;;;;;;;;10.60;99.90;;;;;;5086921;28;19924;-70
2022/09/18 02:05:35;;;;;;;;;;;10.60;99.90;;;;;;5079847;28;21730;-70
2022/09/18 02:08:06;;;;;;;;;;;10.60;99.90;;;;;;5091270;28;19928;-70
2022/09/18 02:10:35;;;;;;;;;;;10.50;99.90;;;;;;5088696;28;19924;-71
2022/09/18 02:13:02;;;;;;;;;;;10.50;99.90;;;;;;5082313;28;19972;-70
2022/09/18 02:15:34;;;;;;;;;;;10.40;99.90;;;;;;5077815;28;19936;-71
2022/09/18 02:18:02;;;;;;;;;;;10.40;99.90;;;;;;5083139;28;19925;-70
2022/09/18 02:20:30;;;;;;;;;;;10.40;99.90;;;;;;5072777;28;19930;-71
2022/09/18 02:22:59;;;;;;;;;;;10.40;99.90;;;;;;5080609;28;19932;-70
2022/09/18 02:25:27;;;;;;;;;;;10.40;99.90;;;;;;5078405;28;19924;-71
2022/09/18 02:27:54;;;;;;;;;;;10.30;99.90;;;;;;5076737;28;19925;-70
2022/09/18 02:30:21;;;;;;;;;;;10.30;99.90;;;;;;5075547;28;20056;-70
2022/09/18 02:32:48;;;;;;;;;;;10.30;99.90;;;;;;5079792;28;19938;-70
2022/09/18 02:35:15;;;;;;;;;;;10.30;99.90;;;;;;5076972;28;19939;-70
2022/09/18 02:37:53;;;;;;;;;;;10.30;99.90;;;;;;5079374;28;20383;-70
2022/09/18 02:40:25;;;;;;;;;;;10.30;99.90;;;;;;5081301;28;19938;-70
2022/09/18 02:42:55;;;;;;;;;;;10.30;99.90;;;;;;5081382;28;20403;-70
2022/09/18 02:45:27;;;;;;;;;;;10.30;99.90;;;;;;5076103;28;19928;-70
2022/09/18 02:48:04;;;;;;;;;;;10.30;99.90;;;;;;5081320;28;19932;-69
2022/09/18 02:50:36;;;;;;;;;;;10.20;99.90;;;;;;5082923;28;19947;-70
2022/09/18 02:53:07;;;;;;;;;;;10.20;99.90;;;;;;5078438;28;22262;-70
2022/09/18 02:55:40;;;;;;;;;;;10.20;99.90;;;;;;5077553;28;20289;-70
2022/09/18 02:58:09;;;;;;;;;;;10.20;99.90;;;;;;5083356;28;19958;-71
2022/09/18 03:00:36;;;;;;;;;;;10.10;99.90;;;;;;5076241;28;19931;-70
2022/09/18 03:03:03;;;;;;;;;;;10.10;99.90;;;;;;5075704;28;20387;-70
2022/09/18 03:05:30;;;;;;;;;;;10.10;99.90;;;;;;5080007;28;20307;-70
2022/09/18 03:07:56;;;;;;;;;;;10.00;99.90;;;;;;5084410;28;19932;-70
2022/09/18 03:10:25;;;;;;;;;;;10.00;99.90;;;;;;5086526;28;20789;-70
2022/09/18 03:12:51;;;;;;;;;;;10.00;99.90;;;;;;5080003;28;19924;-70
2022/09/18 03:15:18;;;;;;;;;;;10.10;99.90;;;;;;5086249;28;20388;-70
2022/09/18 03:17:45;;;;;;;;;;;10.10;99.90;;;;;;5082715;28;19967;-71
2022/09/18 03:20:11;;;;;;;;;;;10.10;99.90;;;;;;5089282;28;20022;-70
2022/09/18 03:22:38;;;;;;;;;;;10.10;99.90;;;;;;5084731;28;20429;-70
2022/09/18 03:25:05;;;;;;;;;;;10.20;99.90;;;;;;5085157;28;19932;-70
2022/09/18 03:27:33;;;;;;;;;;;10.20;99.90;;;;;;5087491;28;19935;-70
2022/09/18 03:30:00;;;;;;;;;;;10.20;99.90;;;;;;5090228;28;19924;-70
2022/09/18 03:32:26;;;;;;;;;;;10.30;99.90;;;;;;5073379;28;19932;-70
2022/09/18 03:34:53;;;;;;;;;;;10.30;99.90;;;;;;5085614;28;19924;-70
2022/09/18 03:37:20;;;;;;;;;;;10.30;99.90;;;;;;5083491;28;19946;-70
2022/09/18 03:39:47;;;;;;;;;;;10.30;99.90;;;;;;5093682;28;19946;-70
2022/09/18 03:42:13;;;;;;;;;;;10.30;99.90;;;;;;5078106;28;19935;-70
2022/09/18 03:44:41;;;;;;;;;;;10.30;99.90;;;;;;5082016;28;20083;-69
2022/09/18 03:47:08;;;;;;;;;;;10.30;99.90;;;;;;5086420;28;19932;-69
2022/09/18 03:49:35;;;;;;;;;;;10.30;99.90;;;;;;5080667;28;19939;-70
2022/09/18 03:52:02;;;;;;;;;;;10.30;99.90;;;;;;5085953;28;19932;-71
2022/09/18 03:54:29;;;;;;;;;;;10.40;99.90;;;;;;5082026;28;19988;-71
2022/09/18 03:56:55;;;;;;;;;;;10.40;99.90;;;;;;5086201;28;20394;-70
2022/09/18 03:59:22;;;;;;;;;;;10.50;99.90;;;;;;5086816;28;20521;-70
2022/09/18 04:01:50;;;;;;;;;;;10.60;99.90;;;;;;5081612;28;20301;-70
2022/09/18 04:04:16;;;;;;;;;;;10.60;99.90;;;;;;5083940;28;19927;-70
2022/09/18 04:06:43;;;;;;;;;;;10.70;99.90;;;;;;5087681;28;20032;-71
2022/09/18 04:09:10;;;;;;;;;;;10.70;99.90;;;;;;5089238;28;19931;-70
2022/09/18 04:11:36;;;;;;;;;;;10.70;99.90;;;;;;5081495;28;20011;-71
2022/09/18 04:14:03;;;;;;;;;;;10.70;99.90;;;;;;5089221;28;19935;-70
2022/09/18 04:16:30;;;;;;;;;;;10.70;99.90;;;;;;5083978;28;19934;-70
2022/09/18 04:18:58;;;;;;;;;;;10.70;99.90;;;;;;5084328;28;20022;-71
2022/09/18 04:21:25;;;;;;;;;;;10.70;99.90;;;;;;5083256;28;19932;-71
2022/09/18 04:23:51;;;;;;;;;;;10.70;99.90;;;;;;5080463;28;20006;-70
2022/09/18 04:26:18;;;;;;;;;;;10.70;99.90;;;;;;5085082;28;19923;-71
2022/09/18 04:28:45;;;;;;;;;;;10.70;99.90;;;;;;5088861;28;19930;-70
2022/09/18 04:31:11;;;;;;;;;;;10.70;99.90;;;;;;5081844;28;20014;-70
2022/09/18 04:33:38;;;;;;;;;;;10.60;99.90;;;;;;5086331;28;19932;-70
2022/09/18 04:36:06;;;;;;;;;;;10.60;99.90;;;;;;5084195;28;21885;-70
2022/09/18 04:38:33;;;;;;;;;;;10.50;99.90;;;;;;5085831;28;19940;-70
2022/09/18 04:41:00;;;;;;;;;;;10.40;99.90;;;;;;5080513;28;20028;-70
2022/09/18 04:43:27;;;;;;;;;;;10.40;99.90;;;;;;5084106;28;19930;-70
2022/09/18 04:45:54;;;;;;;;;;;10.40;99.90;;;;;;5075795;28;20169;-70
2022/09/18 04:48:21;;;;;;;;;;;10.40;99.90;;;;;;5079882;28;20010;-69
2022/09/18 04:50:48;;;;;;;;;;;10.40;99.90;;;;;;5083164;28;22194;-70
2022/09/18 04:53:17;;;;;;;;;;;10.40;99.90;;;;;;5078996;28;20675;-69
2022/09/18 04:55:44;;;;;;;;;;;10.40;99.90;;;;;;5080605;28;19977;-71
2022/09/18 04:58:11;;;;;;;;;;;10.40;99.90;;;;;;5080931;28;20436;-71
2022/09/18 05:00:37;;;;;;;;;;;10.40;99.90;;;;;;5081230;28;19931;-70
2022/09/18 05:03:04;;;;;;;;;;;10.40;99.90;;;;;;5082243;28;20329;-70
2022/09/18 05:05:31;;;;;;;;;;;10.40;99.90;;;;;;5075851;28;19931;-70
2022/09/18 05:07:58;;;;;;;;;;;10.40;99.90;;;;;;5087349;28;20020;-71
2022/09/18 05:10:26;;;;;;;;;;;10.40;99.90;;;;;;5084556;28;20268;-70
2022/09/18 05:12:53;;;;;;;;;;;10.30;99.90;;;;;;5085487;28;20294;-69
2022/09/18 05:15:19;;;;;;;;;;;10.30;99.90;;;;;;5082522;28;19928;-70
2022/09/18 05:17:46;;;;;;;;;;;10.30;99.90;;;;;;5081983;28;19924;-70
2022/09/18 05:20:13;;;;;;;;;;;10.30;99.90;;;;;;5075221;28;19928;-70
2022/09/18 05:22:43;;;;;;;;;;;10.30;99.90;;;;;;5075189;28;19933;-70
2022/09/18 05:25:10;;;;;;;;;;;10.20;99.90;;;;;;5080891;28;19928;-69
2022/09/18 05:27:38;;;;;;;;;;;10.20;99.90;;;;;;5080083;28;19924;-67
2022/09/18 05:30:05;;;;;;;;;;;10.20;99.90;;;;;;5074260;28;19932;-69
2022/09/18 05:32:32;;;;;;;;;;;10.20;99.90;;;;;;5072566;28;19934;-69
2022/09/18 05:34:59;;;;;;;;;;;10.20;99.90;;;;;;5078607;28;20011;-69
2022/09/18 05:37:26;;;;;;;;;;;10.20;99.90;;;;;;5074705;28;19949;-69
2022/09/18 05:39:53;;;;;;;;;;;10.20;99.90;;;;;;5074510;28;19932;-69
2022/09/18 05:42:19;;;;;;;;;;;10.20;99.90;;;;;;5074201;28;20392;-69
2022/09/18 05:44:47;;;;;;;;;;;10.20;99.90;;;;;;5076676;28;19967;-69
2022/09/18 05:47:14;;;;;;;;;;;10.20;99.90;;;;;;5079481;28;19923;-69
2022/09/18 05:49:40;;;;;;;;;;;10.20;99.90;;;;;;5078020;28;19928;-69
2022/09/18 05:52:08;;;;;;;;;;;10.20;99.90;;;;;;5073223;28;19932;-69
2022/09/18 05:54:35;;;;;;;;;;;10.20;99.90;;;;;;5073815;28;20350;-69
2022/09/18 05:57:02;;;;;;;;;;;10.20;99.90;;;;;;5078407;28;19932;-68
2022/09/18 05:59:28;;;;;;;;;;;10.20;99.90;;;;;;5076648;28;20299;-68
2022/09/18 06:01:56;;;;;;;;;;;10.20;99.90;;;;;;5074258;28;20415;-68
2022/09/18 06:04:23;;;;;;;;;;;10.30;99.90;;;;;;5082947;28;19970;-70
2022/09/18 06:06:50;;;;;;;;;;;10.30;99.90;;;;;;5070575;28;21174;-69
2022/09/18 06:09:17;;;;;;;;;;;10.30;99.90;;;;;;5076206;28;20345;-69
2022/09/18 06:11:44;;;;;;;;;;;10.30;99.90;;;;;;5076022;28;19931;-69
2022/09/18 06:14:10;;;;;;;;;;;10.30;99.90;;;;;;5070797;28;20022;-70
2022/09/18 06:16:37;;;;;;;;;;;10.30;99.90;;;;;;5079092;28;20070;-70
2022/09/18 06:19:05;;;;;;;;;;;10.40;99.90;;;;;;5076603;28;19931;-69
2022/09/18 06:21:31;;;;;;;;;;;10.40;99.90;;;;;;5082335;28;19935;-69
2022/09/18 06:23:58;;;;;;;;;;;10.40;99.90;;;;;;5082357;28;19928;-69
2022/09/18 06:26:25;;;;;;;;;;;10.50;99.90;;;;;;5082491;28;20004;-70
2022/09/18 06:28:52;;;;;;;;;;;10.60;99.90;;;;;;5085053;28;20027;-70
2022/09/18 06:31:18;;;;;;;;;;;10.60;99.90;;;;;;5075051;28;19955;-70
2022/09/18 06:33:47;;;;;;;;;;;10.70;99.90;;;;;;5080852;28;20015;-70
2022/09/18 06:36:15;;;;;;;;;;;10.80;99.90;;;;;;5072280;28;19928;-71
2022/09/18 06:38:42;;;;;;;;;;;10.90;99.90;;;;;;5068496;28;19924;-69
2022/09/18 06:41:08;;;;;;;;;;;11.00;99.90;;;;;;5076704;28;19925;-69
2022/09/18 06:43:36;;;;;;;;;;;11.10;99.90;;;;;;5088341;28;20015;-69
2022/09/18 06:46:03;;;;;;;;;;;11.20;99.90;;;;;;5079196;28;20373;-70
2022/09/18 06:48:30;;;;;;;;;;;11.20;99.90;;;;;;5083853;28;19939;-69
2022/09/18 06:50:58;;;;;;;;;;;11.30;99.90;;;;;;5081266;28;19924;-70
2022/09/18 06:53:26;;;;;;;;;;;11.40;99.90;;;;;;5076181;28;20292;-69
2022/09/18 06:55:57;;;;;;;;;;;11.50;99.90;;;;;;5080182;28;19939;-70
2022/09/18 06:58:24;;;;;;;;;;;11.60;99.90;;;;;;5079016;28;19932;-70
2022/09/18 07:00:51;;;;;;;;;;;11.70;99.90;;;;;;5079241;28;19928;-70
2022/09/18 07:03:17;;;;;;;;;;;11.70;99.90;;;;;;5082515;28;19932;-67
2022/09/18 07:05:44;;;;;;;;;;;11.80;99.90;;;;;;5077711;28;20391;-67
2022/09/18 07:08:11;;;;;;;;;;;11.90;99.90;;;;;;5082079;28;19932;-68
2022/09/18 07:10:39;;;;;;;;;;;12.00;99.90;;;;;;5071050;28;20169;-67
2022/09/18 07:13:06;;;;;;;;;;;12.00;99.90;;;;;;5078583;28;19935;-68
2022/09/18 07:15:33;;;;;;;;;;;12.10;99.90;;;;;;5081066;28;20035;-69
2022/09/18 07:18:01;;;;;;;;;;;12.10;99.90;;;;;;5077391;28;19930;-69
2022/09/18 07:20:28;;;;;;;;;;;12.10;99.90;;;;;;5078739;28;20287;-69
2022/09/18 07:22:56;;;;;;;;;;;12.10;99.90;;;;;;5083835;28;19924;-69
2022/09/18 07:25:23;;;;;;;;;;;12.20;99.90;;;;;;5085047;28;19943;-74
2022/09/18 07:27:51;;;;;;;;;;;12.30;99.90;;;;;;5084078;28;20026;-69
2022/09/18 07:30:18;;;;;;;;;;;12.40;99.90;;;;;;5078810;28;19943;-69
2022/09/18 07:32:45;;;;;;;;;;;12.50;99.90;;;;;;5076635;28;19924;-70
2022/09/18 07:35:12;;;;;;;;;;;12.50;99.90;;;;;;5077112;28;20054;-70
2022/09/18 07:37:38;;;;;;;;;;;12.60;99.90;;;;;;5074951;28;19928;-69
2022/09/18 07:40:06;;;;;;;;;;;12.60;99.90;;;;;;5080572;28;20375;-69
2022/09/18 07:42:33;;;;;;;;;;;12.60;99.90;;;;;;5075003;28;19932;-69
2022/09/18 07:45:01;;;;;;;;;;;12.60;99.90;;;;;;5079151;28;19942;-70
2022/09/18 07:47:28;;;;;;;;;;;12.50;99.90;;;;;;5075347;28;19928;-69
2022/09/18 07:49:55;;;;;;;;;;;12.50;99.90;;;;;;5078131;28;19924;-74
2022/09/18 07:52:22;;;;;;;;;;;12.50;99.90;;;;;;5080720;28;20046;-68
2022/09/18 07:54:48;;;;;;;;;;;12.50;99.90;;;;;;5079836;28;19932;-70
2022/09/18 07:57:15;;;;;;;;;;;12.60;99.90;;;;;;5077094;28;19932;-69
2022/09/18 07:59:42;;;;;;;;;;;12.70;99.90;;;;;;5077132;28;19935;-69
2022/09/18 08:02:10;;;;;;;;;;;12.70;99.90;;;;;;5080083;28;19932;-68
2022/09/18 08:04:37;;;;;;;;;;;12.80;99.90;;;;;;5075274;28;19932;-69
2022/09/18 08:07:04;;;;;;;;;;;12.90;99.90;;;;;;5081157;28;19956;-70
2022/09/18 08:09:31;;;;;;;;;;;12.90;99.90;;;;;;5079479;28;20027;-69
2022/09/18 08:11:57;;;;;;;;;;;13.00;99.90;;;;;;5069928;28;19928;-70
2022/09/18 08:14:24;;;;;;;;;;;13.10;99.90;;;;;;5079001;28;20290;-70
2022/09/18 08:16:51;;;;;;;;;;;13.30;99.90;;;;;;5073415;28;19933;-69
2022/09/18 08:19:19;;;;;;;;;;;13.40;99.90;;;;;;5081099;28;19930;-69
2022/09/18 08:21:46;;;;;;;;;;;13.70;99.90;;;;;;5068019;28;20043;-70
2022/09/18 08:24:15;;;;;;;;;;;13.90;99.90;;;;;;5077271;28;19978;-70
2022/09/18 08:26:44;;;;;;;;;;;14.10;99.90;;;;;;5072591;28;20001;-70
2022/09/18 08:29:17;;;;;;;;;;;14.40;99.90;;;;;;5073187;28;20101;-72
2022/09/18 08:31:48;;;;;;;;;;;14.80;99.90;;;;;;5072404;28;20125;-69
2022/09/18 08:34:20;;;;;;;;;;;14.90;99.90;;;;;;5073790;28;19925;-70
2022/09/18 08:36:54;;;;;;;;;;;14.70;99.90;;;;;;5087662;28;20020;-72
2022/09/18 08:39:23;;;;;;;;;;;14.40;99.90;;;;;;5077033;28;20050;-70
2022/09/18 08:42:00;;;;;;;;;;;14.20;99.90;;;;;;5072931;28;19975;-70
2022/09/18 08:44:29;;;;;;;;;;;14.20;99.90;;;;;;5075321;28;19928;-70
2022/09/18 08:47:07;;;;;;;;;;;14.20;99.90;;;;;;5078334;28;19925;-71
2022/09/18 08:49:39;;;;;;;;;;;14.20;99.90;;;;;;5079526;28;19932;-70
2022/09/18 08:52:15;;;;;;;;;;;14.20;99.90;;;;;;5073795;28;19924;-70
2022/09/18 08:54:51;;;;;;;;;;;14.20;99.90;;;;;;5073438;28;20049;-71
2022/09/18 08:57:21;;;;;;;;;;;14.10;99.90;;;;;;5074414;28;19935;-70
2022/09/18 08:59:54;;;;;;;;;;;14.20;99.90;;;;;;5075104;28;20074;-72
2022/09/18 09:02:32;;;;;;;;;;;14.10;99.90;;;;;;5077569;28;19978;-72
2022/09/18 09:05:02;;;;;;;;;;;14.40;99.90;;;;;;5081168;28;19925;-70
2022/09/18 09:07:41;;;;;;;;;;;15.10;99.90;;;;;;5079701;28;19924;-68
2022/09/18 09:10:14;;;;;;;;;;;16.40;99.90;;;;;;5070616;28;19931;-69
2022/09/18 09:12:46;;;;;;;;;;;17.00;99.90;;;;;;5078714;28;19932;-69
2022/09/18 09:15:17;;;;;;;;;;;18.00;99.90;;;;;;5077742;28;20020;-68
2022/09/18 09:17:47;;;;;;;;;;;18.60;99.20;;;;;;5073846;28;19924;-67
2022/09/18 09:20:21;;;;;;;;;;;18.70;97.20;;;;;;5082964;28;19987;-68
2022/09/18 09:22:55;;;;;;;;;;;18.40;96.80;;;;;;5077880;28;19982;-69
2022/09/18 09:25:24;;;;;;;;;;;18.50;96.40;;;;;;5073789;28;19964;-69
2022/09/18 09:27:53;;;;;;;;;;;17.90;97.20;;;;;;5068195;28;20311;-69
2022/09/18 09:30:21;;;;;;;;;;;17.10;98.40;;;;;;5073340;28;19928;-72
2022/09/18 09:32:52;;;;;;;;;;;16.70;99.90;;;;;;5072013;28;20032;-72
2022/09/18 09:35:28;;;;;;;;;;;16.80;99.90;;;;;;5070110;28;20472;-73
2022/09/18 09:37:59;;;;;;;;;;;16.70;99.90;;;;;;5076216;28;20344;-72
2022/09/18 09:40:33;;;;;;;;;;;16.50;99.90;;;;;;5080583;28;19939;-70
2022/09/18 09:43:05;;;;;;;;;;;17.20;99.90;;;;;;5081987;28;19978;-71
2022/09/18 09:45:34;;;;;;;;;;;17.70;99.90;;;;;;5081593;28;20030;-71
2022/09/18 09:48:06;;;;;;;;;;;18.10;97.90;;;;;;5077560;28;19931;-71
2022/09/18 09:50:44;;;;;;;;;;;18.20;97.00;;;;;;5079110;28;19924;-71
2022/09/18 09:53:13;;;;;;;;;;;18.40;97.20;;;;;;5080072;28;19924;-70
2022/09/18 09:55:44;;;;;;;;;;;18.40;96.40;;;;;;5077451;28;19980;-71
2022/09/18 09:58:14;;;;;;;;;;;17.70;96.50;;;;;;5074512;28;19930;-71
2022/09/18 10:00:46;;;;;;;;;;;17.40;98.20;;;;;;5076167;28;20063;-71
2022/09/18 10:03:23;;;;;;;;;;;17.20;99.20;;;;;;5083280;28;19933;-72
2022/09/18 10:05:53;;;;;;;;;;;16.50;99.90;;;;;;5080119;28;20002;-72
2022/09/18 10:08:26;;;;;;;;;;;16.40;99.90;;;;;;5076831;28;19971;-70
2022/09/18 10:10:55;;;;;;;;;;;16.50;99.90;;;;;;5080177;28;19928;-70
2022/09/18 10:13:24;;;;;;;;;;;16.50;99.90;;;;;;5093218;28;19932;-71
2022/09/18 10:15:53;;;;;;;;;;;16.50;99.90;;;;;;5079298;28;19932;-68
2022/09/18 10:18:22;;;;;;;;;;;16.30;99.90;;;;;;5085917;28;19924;-69
2022/09/18 10:20:50;;;;;;;;;;;16.10;99.90;;;;;;5085871;28;20432;-70
2022/09/18 10:23:19;;;;;;;;;;;16.30;99.90;;;;;;5085246;28;20378;-70
2022/09/18 10:25:50;;;;;;;;;;;16.60;99.90;;;;;;5083657;28;20013;-69
2022/09/18 10:28:16;;;;;;;;;;;16.50;99.90;;;;;;5084166;28;19978;-70
2022/09/18 10:30:53;;;;;;;;;;;16.50;99.90;;;;;;5043618;22;19931;-71
2022/09/18 10:33:30;;;;;;;;;;;16.50;99.90;;;;;;5028626;28;20100;-71
2022/09/18 10:36:00;;;;;;;;;;;16.60;99.90;;;;;;5030995;28;20015;-72
2022/09/18 10:38:29;;;;;;;;;;;16.50;99.90;;;;;;5033000;28;19932;-72
2022/09/18 10:41:09;;;;;;;;;;;16.60;99.90;;;;;;5033745;28;20329;-71
2022/09/18 10:43:37;;;;;;;;;;;16.60;99.90;;;;;;5029875;28;19935;-72
2022/09/18 10:46:04;;;;;;;;;;;16.60;99.90;;;;;;5032242;28;19931;-71
2022/09/18 10:48:31;;;;;;;;;;;16.90;99.90;;;;;;5029834;28;19929;-72
2022/09/18 10:50:59;;;;;;;;;;;17.00;99.90;;;;;;5032085;28;19929;-72
2022/09/18 10:53:29;;;;;;;;;;;16.90;99.90;;;;;;5028309;28;19928;-72
2022/09/18 10:56:02;;;;;;;;;;;16.80;99.90;;;;;;5028771;28;19929;-72
2022/09/18 10:58:30;;;;;;;;;;;16.70;99.90;;;;;;5033723;28;19925;-71
2022/09/18 11:00:59;;;;;;;;;;;16.60;99.90;;;;;;5032474;28;19947;-67
2022/09/18 11:03:42;;;;;;;;;;;16.60;99.90;;;;;;5034033;28;20328;-67
2022/09/18 11:06:14;;;;;;;;;;;16.70;99.90;;;;;;5025107;28;20456;-67
2022/09/18 11:08:42;;;;;;;;;;;16.60;99.90;;;;;;5014734;28;19925;-67
2022/09/18 11:11:12;;;;;;;;;;;16.70;99.90;;;;;;5033311;28;19925;-66
2022/09/18 11:13:42;;;;;;;;;;;16.70;99.80;;;;;;5034097;28;20295;-70
2022/09/18 11:16:08;;;;;;;;;;;16.70;99.90;;;;;;5029803;28;19945;-71
2022/09/18 11:18:35;;;;;;;;;;;16.80;99.90;;;;;;5032791;28;19929;-70
2022/09/18 11:21:05;;;;;;;;;;;17.00;98.90;;;;;;5033964;28;19925;-71
2022/09/18 11:23:32;;;;;;;;;;;17.10;98.00;;;;;;5034027;28;19929;-70
2022/09/18 11:26:16;;;;;;;;;;;17.10;97.10;;;;;;5028436;28;19925;-75
2022/09/18 11:28:57;;;;;;;;;;;17.20;96.50;;;;;;5030145;28;19925;-76
2022/09/18 11:31:24;;;;;;;;;;;17.30;94.70;;;;;;5017009;28;20305;-75
2022/09/18 11:33:53;;;;;;;;;;;17.50;95.20;;;;;;5028591;28;19930;-78
2022/09/18 11:36:23;;;;;;;;;;;17.70;93.30;;;;;;5003512;28;19988;-76
2022/09/18 11:38:49;;;;;;;;;;;17.50;94.20;;;;;;5013062;28;19932;-74
2022/09/18 11:41:23;;;;;;;;;;;17.30;93.70;;;;;;5015965;28;19925;-73
2022/09/18 11:43:58;;;;;;;;;;;17.20;94.20;;;;;;5005771;28;19925;-74
2022/09/18 11:46:32;;;;;;;;;;;17.00;93.50;;;;;;5013502;28;19934;-73
2022/09/18 11:49:01;;;;;;;;;;;16.90;93.80;;;;;;5014341;28;19925;-77
2022/09/18 11:51:30;;;;;;;;;;;17.10;94.60;;;;;;5013136;28;19992;-74
2022/09/18 11:54:01;;;;;;;;;;;17.50;94.70;;;;;;5012468;28;20464;-80
2022/09/18 11:56:31;;;;;;;;;;;17.80;92.20;;;;;;5013636;28;20297;-74
2022/09/18 11:59:00;;;;;;;;;;;18.00;91.50;;;;;;5012979;28;19949;-75
2022/09/18 12:01:31;;;;;;;;;;;17.70;92.20;;;;;;5013459;28;20000;-73
2022/09/18 12:04:02;;;;;;;;;;;17.40;92.00;;;;;;5014065;28;19937;-78
2022/09/18 12:06:32;;;;;;;;;;;17.00;92.60;;;;;;5009807;28;19976;-70
2022/09/18 12:09:02;;;;;;;;;;;16.70;92.90;;;;;;5008757;28;20020;-72
2022/09/18 12:11:33;;;;;;;;;;;16.40;92.80;;;;;;5013524;28;20024;-74
2022/09/18 12:14:02;;;;;;;;;;;16.30;92.80;;;;;;5012513;28;19926;-74
2022/09/18 12:16:38;;;;;;;;;;;16.20;92.70;;;;;;5010106;28;19932;-76
2022/09/18 12:19:09;;;;;;;;;;;16.40;92.40;;;;;;5000367;28;19931;-76
2022/09/18 12:21:43;;;;;;;;;;;16.70;92.10;;;;;;5013188;28;19925;-73
2022/09/18 12:24:13;;;;;;;;;;;17.00;92.40;;;;;;5011568;28;20443;-73
2022/09/18 12:26:44;;;;;;;;;;;17.20;91.30;;;;;;5011989;28;19926;-74
2022/09/18 12:29:18;;;;;;;;;;;17.20;91.20;;;;;;5011005;28;19938;-75
2022/09/18 12:31:52;;;;;;;;;;;17.20;91.70;;;;;;5010670;28;20380;-74
2022/09/18 12:34:23;;;;;;;;;;;17.20;91.50;;;;;;5011027;28;19932;-74
2022/09/18 12:36:56;;;;;;;;;;;17.00;91.90;;;;;;5012129;28;19926;-74
2022/09/18 12:39:29;;;;;;;;;;;16.80;92.50;;;;;;5013483;28;21277;-74
2022/09/18 12:42:04;;;;;;;;;;;16.60;93.50;;;;;;5013291;28;20084;-74
2022/09/18 12:44:40;;;;;;;;;;;16.40;93.20;;;;;;5013128;28;19925;-74
2022/09/18 12:47:13;;;;;;;;;;;16.40;93.70;;;;;;5011467;28;19929;-75
2022/09/18 12:49:50;;;;;;;;;;;16.40;93.20;;;;;;5007603;28;20362;-73
2022/09/18 12:52:25;;;;;;;;;;;16.40;93.30;;;;;;5007257;28;19977;-74
2022/09/18 12:55:06;;;;;;;;;;;16.50;92.50;;;;;;5015606;28;20015;-73
2022/09/18 12:57:42;;;;;;;;;;;16.40;92.00;;;;;;5013685;28;19932;-74
2022/09/18 13:00:10;;;;;;;;;;;16.40;91.90;;;;;;5013741;28;19925;-73
2022/09/18 13:02:50;;;;;;;;;;;16.50;92.40;;;;;;5012301;28;19956;-75
2022/09/18 13:05:18;;;;;;;;;;;16.60;92.40;;;;;;5009225;28;20182;-76
2022/09/18 13:07:47;;;;;;;;;;;16.60;92.80;;;;;;5010278;28;19930;-76
2022/09/18 13:10:17;;;;;;;;;;;17.10;92.20;;;;;;5010423;28;19932;-75
2022/09/18 13:12:48;;;;;;;;;;;17.40;90.70;;;;;;4997500;28;19929;-75
2022/09/18 13:15:17;;;;;;;;;;;17.50;90.70;;;;;;5013091;28;19968;-74
2022/09/18 13:17:46;;;;;;;;;;;17.60;88.80;;;;;;5012289;28;19932;-75
2022/09/18 13:20:16;;;;;;;;;;;17.70;88.00;;;;;;5012369;28;19926;-75
2022/09/18 13:22:43;;;;;;;;;;;17.60;85.70;;;;;;5012181;28;20027;-74
2022/09/18 13:25:17;;;;;;;;;;;17.30;86.30;;;;;;5012061;28;20592;-74
2022/09/18 13:27:45;;;;;;;;;;;16.90;87.20;;;;;;5012214;28;20385;-76
2022/09/18 13:30:16;;;;;;;;;;;16.60;89.10;;;;;;5007258;28;19926;-75
2022/09/18 13:32:43;;;;;;;;;;;16.50;88.00;;;;;;5005373;28;20020;-74
2022/09/18 13:35:21;;;;;;;;;;;16.60;88.70;;;;;;5007374;28;19930;-75
2022/09/18 13:37:48;;;;;;;;;;;16.70;87.00;;;;;;5004552;28;20003;-76
2022/09/18 13:40:27;;;;;;;;;;;16.70;87.30;;;;;;5010270;28;19932;-74
2022/09/18 13:42:56;;;;;;;;;;;17.00;85.70;;;;;;5002239;28;20024;-72
2022/09/18 13:45:23;;;;;;;;;;;17.10;84.70;;;;;;4999712;28;20440;-74
2022/09/18 13:47:59;;;;;;;;;;;17.20;85.50;;;;;;5001616;28;19932;-74
2022/09/18 13:50:25;;;;;;;;;;;17.00;87.10;;;;;;5011324;28;20432;-75
2022/09/18 13:52:54;;;;;;;;;;;16.80;89.00;;;;;;5003179;28;19940;-75
2022/09/18 13:55:37;;;;;;;;;;;16.90;90.00;;;;;;4998930;28;19932;-75
2022/09/18 13:58:19;;;;;;;;;;;17.10;90.50;;;;;;4990654;28;19933;-74
2022/09/18 14:00:47;;;;;;;;;;;17.00;90.30;;;;;;4990986;28;19939;-75
2022/09/18 14:03:28;;;;;;;;;;;16.60;91.00;;;;;;5003677;28;19926;-77
2022/09/18 14:05:55;;;;;;;;;;;16.30;91.30;;;;;;4992315;28;19930;-77
2022/09/18 14:08:43;;;;;;;;;;;16.10;91.60;;;;;;4987189;28;19984;-78
2022/09/18 14:11:10;;;;;;;;;;;16.10;90.30;;;;;;4988697;28;19925;-76
2022/09/18 14:13:39;;;;;;;;;;;16.30;91.30;;;;;;4998962;28;20305;-77
2022/09/18 14:16:09;;;;;;;;;;;16.40;91.30;;;;;;4995168;28;20441;-74
2022/09/18 14:18:40;;;;;;;;;;;16.50;91.10;;;;;;5001550;28;20070;-79
2022/09/18 14:21:23;;;;;;;;;;;16.30;91.60;;;;;;5000402;28;19933;-77
2022/09/18 14:23:50;;;;;;;;;;;16.20;91.90;;;;;;4995980;28;19980;-77
2022/09/18 14:26:36;;;;;;;;;;;16.20;92.70;;;;;;5026718;28;19996;-76
2022/09/18 14:29:05;;;;;;;;;;;16.00;93.20;;;;;;5005685;28;20296;-76